Archival Weather

Chicago O'Hare International

Chicago, Illinois (KORD)

Report from: Friday, May 26, 2023 4:51 AM CDT
Current time: Friday, April 19, 2024 4:52 AM CDT

Current weather – Weather history – Daily summaries
Weather forecast

Temperature9.4°C (48.9°F)
Wind chill8.1°C (46.5°F)
Dew point3.3°C (37.9°F)
Winds 5 kts (2.6 m/s, 5.8 mph) Northeast (50°)
Visibility10 mi. (16.1 km)
Clouds Few clouds 25,000 ft. (7,620 m)
Altimeter30.31 in.Hg (1026 mB)
Relative humidity66 %
Density altitude-1,003 ft. (-306 m)
Sea-level pressure102.7 kPa (1027 mB, 30.31 in.Hg)
Remarks Automated weather observing station with precipitation discriminator
Flight conditions Visual Meteorological Conditions
Raw dataKORD 260951Z 05005KT 10SM FEW250 09/03 A3031 RMK AO2 SLP265 T00940033
An error has occurred. This application may no longer respond until reloaded. Reload 🗙